Airport View

Enter AWOS ICAO identifier for current METAR.

ex. KFNL

KPIL 192153Z AUTO 15015G22KT 10SM CLR 32/23 A2971 RMK AO2 SLP061 T03170233

19 Oct 2019 22:29

Frequency: 118.525

Phone: 956-233-5740

Other Area AWOS: KSPL - KBRO - KHRL - MMMA

TAF AMD KBRO 191901Z 1919/2018 19012KT P6SM BKN040 FM200300 15008KT P6SM FEW040 SCT150 TEMPO 2012/2015 BKN015 FM201500 16009KT P6SM SCT015 BKN028